createdAt,value
2018-03-29T00:00:02.520Z,0
2018-03-29T00:01:02.759Z,0
2018-03-29T00:02:02.745Z,0
2018-03-29T00:03:02.735Z,0
2018-03-29T00:04:02.742Z,0
2018-03-29T00:05:02.217Z,0
2018-03-29T00:06:02.436Z,0
2018-03-29T00:07:02.697Z,0
2018-03-29T00:08:02.671Z,0
2018-03-29T00:09:02.410Z,0
2018-03-29T00:10:02.155Z,0
2018-03-29T00:11:02.120Z,0
2018-03-29T00:12:02.612Z,0
2018-03-29T00:13:02.349Z,0
2018-03-29T00:14:02.326Z,0
2018-03-29T00:15:02.322Z,0
2018-03-29T00:16:01.800Z,0
2018-03-29T00:17:02.291Z,0
2018-03-29T00:18:02.283Z,0
2018-03-29T00:19:02.268Z,0
2018-03-29T00:20:02.261Z,0
2018-03-29T00:21:02.253Z,0
2018-03-29T00:22:02.227Z,0
2018-03-29T00:23:02.212Z,0
2018-03-29T00:24:01.957Z,0
2018-03-29T00:25:02.183Z,0
2018-03-29T00:26:02.170Z,0
2018-03-29T00:27:02.160Z,0
2018-03-29T00:28:02.145Z,0
2018-03-29T00:29:02.391Z,0
2018-03-29T00:30:02.116Z,0
2018-03-29T00:31:02.112Z,0
2018-03-29T00:32:02.092Z,0
2018-03-29T00:33:02.336Z,0
2018-03-29T00:34:02.341Z,0
2018-03-29T00:35:01.819Z,0
2018-03-29T00:36:02.039Z,0
2018-03-29T00:37:02.033Z,0
2018-03-29T00:38:02.277Z,0
2018-03-29T00:39:02.268Z,0
2018-03-29T00:40:02.266Z,0
2018-03-29T00:41:01.977Z,0
2018-03-29T00:42:02.224Z,0
2018-03-29T00:43:02.222Z,0
2018-03-29T00:44:02.185Z,0
2018-03-29T00:45:01.673Z,0
2018-03-29T00:46:02.159Z,0
2018-03-29T00:47:01.899Z,0
2018-03-29T00:48:01.890Z,0
2018-03-29T00:49:01.871Z,0
2018-03-29T00:50:02.123Z,0
2018-03-29T00:51:02.095Z,0
2018-03-29T00:52:02.150Z,0
2018-03-29T00:53:01.834Z,0
2018-03-29T00:54:01.805Z,0
2018-03-29T00:55:02.041Z,0
2018-03-29T00:56:01.773Z,0
2018-03-29T00:57:01.766Z,0
2018-03-29T00:58:01.751Z,0
2018-03-29T00:59:01.734Z,0
2018-03-29T01:00:01.975Z,0
2018-03-29T01:01:01.970Z,0
2018-03-29T01:02:01.446Z,0
2018-03-29T01:03:01.687Z,0
2018-03-29T01:04:01.923Z,0
2018-03-29T01:05:01.917Z,0
2018-03-29T01:06:01.897Z,0
2018-03-29T01:07:01.902Z,0
2018-03-29T01:08:01.379Z,0
2018-03-29T01:09:01.865Z,0
2018-03-29T01:10:01.847Z,0
2018-03-29T01:11:01.838Z,0
2018-03-29T01:12:01.624Z,0
2018-03-29T01:13:01.569Z,0
2018-03-29T01:14:01.795Z,0
2018-03-29T01:15:01.780Z,0
2018-03-29T01:16:01.512Z,0
2018-03-29T01:17:01.247Z,0
2018-03-29T01:18:01.485Z,0
2018-03-29T01:19:01.732Z,0
2018-03-29T01:20:01.708Z,0
2018-03-29T01:21:01.700Z,0
2018-03-29T01:22:01.690Z,0
2018-03-29T01:23:01.165Z,0
2018-03-29T01:24:01.667Z,0
2018-03-29T01:25:01.397Z,0
2018-03-29T01:26:01.387Z,0
2018-03-29T01:27:01.651Z,0
2018-03-29T01:28:01.610Z,0
2018-03-29T01:29:01.599Z,0
2018-03-29T01:30:01.583Z,0
2018-03-29T01:31:01.315Z,0
2018-03-29T01:32:01.313Z,0
2018-03-29T01:33:01.290Z,0
2018-03-29T01:34:01.529Z,0
2018-03-29T01:35:01.523Z,0
2018-03-29T01:36:01.251Z,0
2018-03-29T01:37:00.982Z,0
2018-03-29T01:38:01.487Z,0
2018-03-29T01:39:01.478Z,0
2018-03-29T01:40:01.193Z,0
2018-03-29T01:41:00.929Z,0
2018-03-29T01:42:01.182Z,0
2018-03-29T01:43:01.419Z,0
2018-03-29T01:44:01.395Z,0
2018-03-29T01:45:01.143Z,0
2018-03-29T01:46:01.366Z,0
2018-03-29T01:47:01.354Z,0
2018-03-29T01:48:01.351Z,0
2018-03-29T01:49:01.078Z,0
2018-03-29T01:50:01.071Z,0
2018-03-29T01:51:01.303Z,0
2018-03-29T01:52:01.290Z,0
2018-03-29T01:53:01.031Z,0
2018-03-29T01:54:01.025Z,0
2018-03-29T01:55:01.311Z,0
2018-03-29T01:56:01.705Z,0
2018-03-29T01:57:01.237Z,0
2018-03-29T01:58:01.228Z,0
2018-03-29T01:59:00.951Z,0
2018-03-29T02:00:01.197Z,0
2018-03-29T02:01:01.331Z,0
2018-03-29T02:02:01.161Z,0
2018-03-29T02:03:01.163Z,0
2018-03-29T02:04:01.150Z,0
2018-03-29T02:05:00.887Z,0
2018-03-29T02:06:00.859Z,0
2018-03-29T02:07:01.100Z,0
2018-03-29T02:08:01.086Z,0
2018-03-29T02:09:01.069Z,0
2018-03-29T02:10:01.061Z,0
2018-03-29T02:11:00.793Z,0
2018-03-29T02:12:01.034Z,0
2018-03-29T02:13:01.033Z,0
2018-03-29T02:14:00.757Z,0
2018-03-29T02:15:00.748Z,0
2018-03-29T02:16:00.988Z,0
2018-03-29T02:17:00.733Z,0
2018-03-29T02:18:00.960Z,0
2018-03-29T02:19:00.944Z,0
2018-03-29T02:20:00.682Z,0
2018-03-29T02:21:00.666Z,0
2018-03-29T02:22:00.650Z,0
2018-03-29T02:23:00.896Z,0
2018-03-29T02:24:00.879Z,0
2018-03-29T02:25:00.874Z,0
2018-03-29T02:26:00.865Z,0
2018-03-29T02:27:00.589Z,0
2018-03-29T02:28:00.582Z,0
2018-03-29T02:29:00.821Z,0
2018-03-29T02:30:01.054Z,0
2018-03-29T02:31:00.802Z,0
2018-03-29T02:32:00.796Z,0
2018-03-29T02:33:00.829Z,0
2018-03-29T02:34:00.524Z,0
2018-03-29T02:35:00.764Z,0
2018-03-29T02:36:00.489Z,0
2018-03-29T02:37:00.723Z,0
2018-03-29T02:38:00.713Z,0
2018-03-29T02:39:00.695Z,0
2018-03-29T02:40:00.692Z,0
2018-03-29T02:41:00.696Z,0
2018-03-29T02:42:00.417Z,0
2018-03-29T02:43:00.661Z,0
2018-03-29T02:44:00.632Z,0
2018-03-29T02:45:00.624Z,0
2018-03-29T02:46:00.610Z,0
2018-03-29T02:47:00.600Z,0
2018-03-29T02:48:00.639Z,0
2018-03-29T02:49:00.576Z,0
2018-03-29T02:50:00.308Z,0
2018-03-29T02:51:00.560Z,0
2018-03-29T02:52:00.552Z,0
2018-03-29T02:53:00.269Z,0
2018-03-29T02:54:00.513Z,0
2018-03-29T02:55:00.497Z,0
2018-03-29T02:56:00.490Z,0
2018-03-29T02:57:00.491Z,0
2018-03-29T02:58:00.235Z,0
2018-03-29T02:59:00.194Z,0
2018-03-29T03:00:00.444Z,0
2018-03-29T03:01:00.439Z,0
2018-03-29T03:02:00.418Z,0
2018-03-29T03:03:00.407Z,0
2018-03-29T03:04:00.427Z,0
2018-03-29T03:04:59.875Z,0
2018-03-29T03:06:00.366Z,0
2018-03-29T03:07:00.357Z,0
2018-03-29T03:08:00.104Z,0
2018-03-29T03:09:00.344Z,0
2018-03-29T03:10:00.068Z,0
2018-03-29T03:11:00.311Z,0
2018-03-29T03:12:00.290Z,0
2018-03-29T03:13:00.039Z,0
2018-03-29T03:14:00.278Z,0
2018-03-29T03:15:00.013Z,0
2018-03-29T03:15:59.996Z,0
2018-03-29T03:17:00.293Z,0
2018-03-29T03:17:59.717Z,0
2018-03-29T03:18:59.704Z,0
2018-03-29T03:19:59.958Z,0
2018-03-29T03:21:00.198Z,0
2018-03-29T03:21:59.926Z,0
2018-03-29T03:22:59.657Z,0
2018-03-29T03:24:00.164Z,0
2018-03-29T03:25:00.147Z,0
2018-03-29T03:25:59.876Z,0
2018-03-29T03:26:59.864Z,0
2018-03-29T03:28:00.059Z,0
2018-03-29T03:28:59.848Z,0
2018-03-29T03:30:00.149Z,0
2018-03-29T03:30:59.573Z,0
2018-03-29T03:31:59.811Z,0
2018-03-29T03:32:59.794Z,0
2018-03-29T03:34:00.035Z,0
2018-03-29T03:35:00.034Z,0
2018-03-29T03:36:00.047Z,0
2018-03-29T03:36:59.748Z,0
2018-03-29T03:38:00.001Z,0
2018-03-29T03:38:59.794Z,0
2018-03-29T03:39:59.718Z,0
2018-03-29T03:40:59.454Z,0
2018-03-29T03:41:59.691Z,0
2018-03-29T03:42:59.941Z,0
2018-03-29T03:43:59.925Z,0
2018-03-29T03:44:59.655Z,0
2018-03-29T03:45:59.896Z,0
2018-03-29T03:46:59.901Z,0
2018-03-29T03:47:59.877Z,0
2018-03-29T03:48:59.876Z,0
2018-03-29T03:49:59.863Z,0
2018-03-29T03:50:59.844Z,0
2018-03-29T03:51:59.577Z,0
2018-03-29T03:52:59.819Z,0
2018-03-29T03:53:59.301Z,0
2018-03-29T03:54:59.801Z,0
2018-03-29T03:55:59.787Z,0
2018-03-29T03:56:59.520Z,0
2018-03-29T03:57:59.259Z,0
2018-03-29T03:58:59.503Z,0
2018-03-29T03:59:59.742Z,0
2018-03-29T04:00:59.738Z,0
2018-03-29T04:01:59.212Z,0
2018-03-29T04:02:59.480Z,0
2018-03-29T04:03:59.441Z,0
2018-03-29T04:04:59.428Z,0
2018-03-29T04:05:59.174Z,0
2018-03-29T04:06:59.426Z,0
2018-03-29T04:07:59.647Z,0
2018-03-29T04:08:59.640Z,0
2018-03-29T04:09:59.629Z,0
2018-03-29T04:10:59.613Z,28
2018-03-29T04:11:59.609Z,40
2018-03-29T04:12:59.590Z,40
2018-03-29T04:13:59.329Z,40
2018-03-29T04:14:59.572Z,44
2018-03-29T04:15:59.305Z,44
2018-03-29T04:16:59.294Z,40
2018-03-29T04:17:59.543Z,40
2018-03-29T04:18:59.536Z,40
2018-03-29T04:19:59.615Z,44
2018-03-29T04:20:59.254Z,44
2018-03-29T04:21:58.993Z,44
2018-03-29T04:22:59.227Z,44
2018-03-29T04:23:59.471Z,44
2018-03-29T04:24:59.457Z,44
2018-03-29T04:25:59.192Z,44
2018-03-29T04:26:59.433Z,44
2018-03-29T04:27:59.170Z,48
2018-03-29T04:28:59.416Z,4
2018-03-29T04:29:59.146Z,4
2018-03-29T04:30:58.883Z,8
2018-03-29T04:31:59.377Z,4
2018-03-29T04:32:59.168Z,8
2018-03-29T04:33:59.101Z,8
2018-03-29T04:34:58.837Z,8
2018-03-29T04:35:58.829Z,12
2018-03-29T04:36:59.324Z,16
2018-03-29T04:37:59.334Z,20
2018-03-29T04:38:59.304Z,20
2018-03-29T04:39:59.034Z,20
2018-03-29T04:40:59.275Z,24
2018-03-29T04:41:59.262Z,24
2018-03-29T04:42:58.998Z,28
2018-03-29T04:43:58.988Z,28
2018-03-29T04:44:58.724Z,28
2018-03-29T04:45:59.228Z,28
2018-03-29T04:46:58.963Z,32
2018-03-29T04:47:59.203Z,36
2018-03-29T04:48:59.188Z,40
2018-03-29T04:49:59.190Z,40
2018-03-29T04:50:59.171Z,48
2018-03-29T04:51:58.894Z,56
2018-03-29T04:52:59.136Z,64
2018-03-29T04:53:58.669Z,72
2018-03-29T04:54:58.862Z,76
2018-03-29T04:55:59.108Z,76
2018-03-29T04:56:59.127Z,84
2018-03-29T04:57:58.829Z,96
2018-03-29T04:58:59.093Z,104
2018-03-29T04:59:59.108Z,100
2018-03-29T05:00:59.058Z,92
2018-03-29T05:01:58.786Z,88
2018-03-29T05:02:58.777Z,92
2018-03-29T05:03:59.009Z,104
2018-03-29T05:04:58.755Z,124
2018-03-29T05:05:58.993Z,140
2018-03-29T05:06:58.728Z,176
2018-03-29T05:07:58.966Z,268
2018-03-29T05:08:58.960Z,316
2018-03-29T05:09:59.156Z,388
2018-03-29T05:10:58.946Z,392
2018-03-29T05:11:58.933Z,428
2018-03-29T05:12:58.912Z,420
2018-03-29T05:13:58.896Z,412
2018-03-29T05:14:58.899Z,420
2018-03-29T05:15:58.892Z,404
2018-03-29T05:16:58.869Z,412
2018-03-29T05:17:58.865Z,416
2018-03-29T05:18:58.586Z,416
2018-03-29T05:19:58.585Z,396
2018-03-29T05:20:58.816Z,376
2018-03-29T05:21:58.554Z,360
2018-03-29T05:22:58.546Z,456
2018-03-29T05:23:58.795Z,464
2018-03-29T05:24:58.270Z,432
2018-03-29T05:25:58.759Z,524
2018-03-29T05:26:58.755Z,444
2018-03-29T05:27:58.753Z,384
2018-03-29T05:28:58.724Z,456
2018-03-29T05:29:58.482Z,488
2018-03-29T05:30:58.447Z,544
2018-03-29T05:31:58.445Z,548
2018-03-29T05:32:58.426Z,596
2018-03-29T05:33:58.425Z,604
2018-03-29T05:34:58.404Z,664
2018-03-29T05:35:58.652Z,640
2018-03-29T05:36:58.652Z,688
2018-03-29T05:37:58.639Z,700
2018-03-29T05:38:58.624Z,740
2018-03-29T05:39:58.375Z,636
2018-03-29T05:40:58.695Z,588
2018-03-29T05:41:58.577Z,628
2018-03-29T05:42:58.578Z,620
2018-03-29T05:43:58.558Z,680
2018-03-29T05:44:58.034Z,748
2018-03-29T05:45:58.542Z,788
2018-03-29T05:46:58.725Z,860
2018-03-29T05:47:58.516Z,1072
2018-03-29T05:48:58.491Z,1088
2018-03-29T05:49:58.483Z,1160
2018-03-29T05:50:58.473Z,1208
2018-03-29T05:51:58.501Z,1116
2018-03-29T05:52:58.200Z,1232
2018-03-29T05:53:58.445Z,1376
2018-03-29T05:54:58.177Z,1484
2018-03-29T05:55:57.915Z,1348
2018-03-29T05:56:58.403Z,1460
2018-03-29T05:57:58.405Z,1580
2018-03-29T05:58:58.386Z,1432
2018-03-29T05:59:58.438Z,1240
2018-03-29T06:00:58.377Z,1340
2018-03-29T06:01:58.102Z,1508
2018-03-29T06:02:58.096Z,1484
2018-03-29T06:03:58.320Z,1644
2018-03-29T06:04:58.320Z,1712
2018-03-29T06:05:58.316Z,1712
2018-03-29T06:06:58.298Z,1760
2018-03-29T06:07:58.298Z,2060
2018-03-29T06:08:58.302Z,1996
2018-03-29T06:09:58.255Z,1912
2018-03-29T06:10:58.248Z,1880
2018-03-29T06:11:58.237Z,2004
2018-03-29T06:12:58.221Z,1996
2018-03-29T06:13:57.952Z,1796
2018-03-29T06:14:58.212Z,2240
2018-03-29T06:15:57.938Z,2644
2018-03-29T06:16:58.193Z,2708
2018-03-29T06:17:57.975Z,2924
2018-03-29T06:18:58.161Z,3512
2018-03-29T06:19:57.933Z,3384
2018-03-29T06:20:58.146Z,3520
2018-03-29T06:21:58.119Z,3280
2018-03-29T06:22:58.110Z,3228
2018-03-29T06:23:58.098Z,3356
2018-03-29T06:24:58.081Z,3284
2018-03-29T06:25:58.082Z,3880
2018-03-29T06:26:58.074Z,4000
2018-03-29T06:27:57.556Z,4064
2018-03-29T06:28:58.038Z,4084
2018-03-29T06:29:57.776Z,3700
2018-03-29T06:30:57.770Z,3352
2018-03-29T06:31:58.007Z,3184
2018-03-29T06:32:58.009Z,3076
2018-03-29T06:33:58.011Z,2644
2018-03-29T06:34:57.972Z,2780
2018-03-29T06:35:57.966Z,2380
2018-03-29T06:36:57.954Z,2540
2018-03-29T06:37:57.688Z,2964
2018-03-29T06:38:57.932Z,2872
2018-03-29T06:39:57.681Z,3092
2018-03-29T06:40:57.917Z,3372
2018-03-29T06:41:57.899Z,3912
2018-03-29T06:42:57.885Z,4848
2018-03-29T06:43:57.624Z,5436
2018-03-29T06:44:57.910Z,5396
2018-03-29T06:45:57.866Z,5944
2018-03-29T06:46:57.648Z,5924
2018-03-29T06:47:57.332Z,4956
2018-03-29T06:48:57.571Z,4844
2018-03-29T06:49:57.819Z,4624
2018-03-29T06:50:57.552Z,4424
2018-03-29T06:51:57.798Z,4088
2018-03-29T06:52:57.806Z,4372
2018-03-29T06:53:57.778Z,4132
2018-03-29T06:54:57.772Z,3652
2018-03-29T06:55:57.246Z,3376
2018-03-29T06:56:57.494Z,3076
2018-03-29T06:57:57.744Z,2928
2018-03-29T06:58:57.722Z,3112
2018-03-29T06:59:57.455Z,2900
2018-03-29T07:00:57.888Z,2996
2018-03-29T07:01:57.715Z,3380
2018-03-29T07:02:57.708Z,3324
2018-03-29T07:03:57.423Z,3392
2018-03-29T07:04:57.152Z,3468
2018-03-29T07:05:57.400Z,4160
2018-03-29T07:06:57.393Z,4116
2018-03-29T07:07:57.643Z,4036
2018-03-29T07:08:57.627Z,3900
2018-03-29T07:09:57.628Z,3648
2018-03-29T07:10:57.613Z,4072
2018-03-29T07:11:57.594Z,3676
2018-03-29T07:12:57.596Z,4100
2018-03-29T07:13:57.564Z,4512
2018-03-29T07:14:57.382Z,4224
2018-03-29T07:15:57.562Z,4268
2018-03-29T07:16:57.555Z,3876
2018-03-29T07:17:57.546Z,4080
2018-03-29T07:18:57.526Z,3956
2018-03-29T07:19:57.519Z,4380
2018-03-29T07:20:57.503Z,4256
2018-03-29T07:21:57.505Z,4256
2018-03-29T07:22:57.273Z,4296
2018-03-29T07:23:57.498Z,4140
2018-03-29T07:24:57.513Z,4208
2018-03-29T07:25:57.456Z,4356
2018-03-29T07:26:57.462Z,3908
2018-03-29T07:27:57.180Z,4704
2018-03-29T07:28:57.177Z,4356
2018-03-29T07:29:57.438Z,4360
2018-03-29T07:30:57.394Z,4180
2018-03-29T07:31:57.392Z,4660
2018-03-29T07:32:57.161Z,4464
2018-03-29T07:33:57.418Z,4464
2018-03-29T07:34:57.128Z,4680
2018-03-29T07:35:57.104Z,5216
2018-03-29T07:36:57.336Z,5352
2018-03-29T07:37:57.344Z,5208
2018-03-29T07:38:57.105Z,5112
2018-03-29T07:39:57.065Z,5300
2018-03-29T07:40:56.806Z,5200
2018-03-29T07:41:57.292Z,4920
2018-03-29T07:42:57.733Z,5528
2018-03-29T07:43:57.307Z,6200
2018-03-29T07:44:56.764Z,5552
2018-03-29T07:45:57.284Z,5412
2018-03-29T07:46:57.253Z,6816
2018-03-29T07:47:57.264Z,7536
2018-03-29T07:48:57.220Z,7872
2018-03-29T07:49:56.966Z,7496
2018-03-29T07:50:57.201Z,7804
2018-03-29T07:51:57.210Z,6956
2018-03-29T07:52:57.230Z,6924
2018-03-29T07:53:57.186Z,6688
2018-03-29T07:54:56.673Z,7120
2018-03-29T07:55:57.612Z,6880
2018-03-29T07:56:57.144Z,7064
2018-03-29T07:57:57.421Z,7240
2018-03-29T07:58:57.124Z,7036
2018-03-29T07:59:57.117Z,6664
2018-03-29T08:00:57.169Z,7228
2018-03-29T08:01:56.854Z,6580
2018-03-29T08:02:56.594Z,6536
2018-03-29T08:03:57.083Z,8076
2018-03-29T08:04:57.069Z,8124
2018-03-29T08:05:57.070Z,7000
2018-03-29T08:06:57.080Z,7772
2018-03-29T08:07:56.788Z,7924
2018-03-29T08:08:57.028Z,8848
2018-03-29T08:09:57.105Z,10440
2018-03-29T08:10:57.068Z,9384
2018-03-29T08:11:56.996Z,10316
2018-03-29T08:12:56.991Z,9800
2018-03-29T08:13:57.132Z,9888
2018-03-29T08:14:56.775Z,11956
2018-03-29T08:15:56.955Z,11320
2018-03-29T08:16:56.704Z,10800
2018-03-29T08:17:56.690Z,9432
2018-03-29T08:18:56.976Z,8680
2018-03-29T08:19:56.920Z,8356
2018-03-29T08:20:56.430Z,9056
2018-03-29T08:21:56.653Z,7884
2018-03-29T08:22:56.902Z,8420
2018-03-29T08:23:56.380Z,8300
2018-03-29T08:24:56.880Z,7636
2018-03-29T08:25:56.673Z,8068
2018-03-29T08:26:56.642Z,7612
2018-03-29T08:27:56.603Z,8016
2018-03-29T08:28:56.855Z,7024
2018-03-29T08:29:56.885Z,7980
2018-03-29T08:30:56.843Z,7324
2018-03-29T08:31:56.841Z,6160
2018-03-29T08:32:56.838Z,6456
2018-03-29T08:33:56.815Z,8060
2018-03-29T08:34:56.571Z,8456
2018-03-29T08:35:56.295Z,9560
2018-03-29T08:36:56.778Z,8860
2018-03-29T08:37:56.788Z,8480
2018-03-29T08:38:56.504Z,8356
2018-03-29T08:39:56.729Z,8736
2018-03-29T08:40:56.762Z,9372
2018-03-29T08:41:56.766Z,9804
2018-03-29T08:42:56.838Z,9548
2018-03-29T08:43:56.457Z,9208
2018-03-29T08:44:56.517Z,9496
2018-03-29T08:45:56.708Z,10924
2018-03-29T08:46:56.702Z,13192
2018-03-29T08:47:56.205Z,9528
2018-03-29T08:48:56.719Z,10364
2018-03-29T08:49:56.728Z,11240
2018-03-29T08:50:56.660Z,12984
2018-03-29T08:51:56.675Z,13484
2018-03-29T08:52:56.395Z,11828
2018-03-29T08:53:56.650Z,10032
2018-03-29T08:54:56.622Z,9152
2018-03-29T08:55:56.631Z,9892
2018-03-29T08:56:56.624Z,8676
2018-03-29T08:57:56.612Z,9084
2018-03-29T08:58:56.347Z,9480
2018-03-29T08:59:56.580Z,8796
2018-03-29T09:00:56.345Z,7836
2018-03-29T09:01:56.307Z,7568
2018-03-29T09:02:56.298Z,8520
2018-03-29T09:03:56.549Z,8628
2018-03-29T09:04:56.578Z,8792
2018-03-29T09:05:56.277Z,8380
2018-03-29T09:06:56.525Z,7912
2018-03-29T09:07:56.263Z,8452
2018-03-29T09:08:56.641Z,8556
2018-03-29T09:09:56.508Z,8508
2018-03-29T09:10:56.300Z,8436
2018-03-29T09:11:56.550Z,9964
2018-03-29T09:12:56.266Z,7940
2018-03-29T09:13:56.482Z,9420
2018-03-29T09:14:56.457Z,9744
2018-03-29T09:15:56.474Z,8240
2018-03-29T09:16:56.187Z,7624
2018-03-29T09:17:56.443Z,11288
2018-03-29T09:18:56.234Z,16992
2018-03-29T09:19:56.430Z,16544
2018-03-29T09:20:56.160Z,14872
2018-03-29T09:21:56.192Z,11944
2018-03-29T09:22:56.395Z,11272
2018-03-29T09:23:56.130Z,12352
2018-03-29T09:24:56.377Z,14532
2018-03-29T09:25:56.125Z,17696
2018-03-29T09:26:56.407Z,17952
2018-03-29T09:27:56.362Z,16736
2018-03-29T09:28:56.384Z,17344
2018-03-29T09:29:56.348Z,19360
2018-03-29T09:30:56.351Z,21248
2018-03-29T09:31:56.336Z,20640
2018-03-29T09:32:56.081Z,18976
2018-03-29T09:33:56.334Z,18048
2018-03-29T09:34:56.057Z,16704
2018-03-29T09:35:56.089Z,13036
2018-03-29T09:36:56.295Z,12156
2018-03-29T09:37:56.278Z,10808
2018-03-29T09:38:56.324Z,8300
2018-03-29T09:39:56.289Z,7024
2018-03-29T09:40:56.269Z,7200
2018-03-29T09:41:56.285Z,7796
2018-03-29T09:42:56.547Z,9720
2018-03-29T09:43:56.248Z,12120
2018-03-29T09:44:55.742Z,14984
2018-03-29T09:45:56.232Z,16608
2018-03-29T09:46:55.972Z,15880
2018-03-29T09:47:55.956Z,12936
2018-03-29T09:48:56.200Z,12500
2018-03-29T09:49:56.217Z,12392
2018-03-29T09:50:56.399Z,11996
2018-03-29T09:51:55.703Z,10448
2018-03-29T09:52:56.194Z,14596
2018-03-29T09:53:56.213Z,14268
2018-03-29T09:54:56.174Z,13484
2018-03-29T09:55:55.937Z,15360
2018-03-29T09:56:55.928Z,11260
2018-03-29T09:57:55.898Z,10432
2018-03-29T09:58:55.882Z,9408
2018-03-29T09:59:56.172Z,8888
2018-03-29T10:00:55.880Z,7736
2018-03-29T10:01:56.114Z,9652
2018-03-29T10:02:56.111Z,14604
2018-03-29T10:03:56.107Z,19072
2018-03-29T10:04:56.107Z,17856
2018-03-29T10:05:55.841Z,14580
2018-03-29T10:06:56.122Z,14472
2018-03-29T10:07:55.320Z,13904
2018-03-29T10:08:56.066Z,12828
2018-03-29T10:09:55.807Z,13220
2018-03-29T10:10:55.802Z,14960
2018-03-29T10:11:56.066Z,13896
2018-03-29T10:12:56.054Z,10688
2018-03-29T10:13:56.040Z,9716
2018-03-29T10:14:55.772Z,12744
2018-03-29T10:15:55.785Z,16160
2018-03-29T10:16:56.035Z,17376
2018-03-29T10:17:55.750Z,17184
2018-03-29T10:18:56.199Z,17632
2018-03-29T10:19:56.043Z,16192
2018-03-29T10:20:55.759Z,15836
2018-03-29T10:21:56.013Z,15968
2018-03-29T10:22:56.007Z,12884
2018-03-29T10:23:55.768Z,10788
2018-03-29T10:24:55.786Z,11708
2018-03-29T10:25:55.998Z,13716
2018-03-29T10:26:56.263Z,18336
2018-03-29T10:27:55.945Z,20000
2018-03-29T10:28:55.697Z,16960
2018-03-29T10:29:55.948Z,13916
2018-03-29T10:30:55.419Z,15612
2018-03-29T10:31:55.940Z,15452
2018-03-29T10:32:55.445Z,16896
2018-03-29T10:33:55.978Z,14764
2018-03-29T10:34:55.951Z,11836
2018-03-29T10:35:56.079Z,15876
2018-03-29T10:36:55.645Z,16800
2018-03-29T10:37:55.633Z,14472
2018-03-29T10:38:55.654Z,12344
2018-03-29T10:39:55.903Z,12984
2018-03-29T10:40:55.642Z,14548
2018-03-29T10:41:55.908Z,13464
2018-03-29T10:42:55.916Z,11820
2018-03-29T10:43:55.617Z,9688
2018-03-29T10:44:55.599Z,8864
2018-03-29T10:45:55.693Z,8956
2018-03-29T10:46:55.823Z,9368
2018-03-29T10:47:55.828Z,10696
2018-03-29T10:48:55.573Z,9900
2018-03-29T10:49:55.300Z,8800
2018-03-29T10:50:55.821Z,8312
2018-03-29T10:51:55.551Z,7552
2018-03-29T10:52:55.800Z,7292
2018-03-29T10:53:55.289Z,6804
2018-03-29T10:54:55.813Z,6492
2018-03-29T10:55:55.270Z,6256
2018-03-29T10:56:55.770Z,6104
2018-03-29T10:57:55.520Z,5832
2018-03-29T10:58:56.104Z,5936
2018-03-29T10:59:55.496Z,5980
2018-03-29T11:00:55.750Z,6164
2018-03-29T11:01:55.232Z,7268
2018-03-29T11:02:55.742Z,7612
2018-03-29T11:03:55.786Z,7648
2018-03-29T11:04:55.740Z,7228
2018-03-29T11:05:55.459Z,7816
2018-03-29T11:06:55.710Z,8156
2018-03-29T11:07:55.702Z,8300
2018-03-29T11:08:55.711Z,8396
2018-03-29T11:09:55.687Z,10156
2018-03-29T11:10:55.690Z,11424
2018-03-29T11:11:55.516Z,10700
2018-03-29T11:12:55.413Z,9756
2018-03-29T11:13:55.681Z,9840
2018-03-29T11:14:55.399Z,9472
2018-03-29T11:15:55.419Z,10740
2018-03-29T11:16:55.390Z,11908
2018-03-29T11:17:55.397Z,13208
2018-03-29T11:18:55.364Z,15960
2018-03-29T11:19:55.120Z,18304
2018-03-29T11:20:55.347Z,19264
2018-03-29T11:21:55.612Z,18368
2018-03-29T11:22:55.593Z,17760
2018-03-29T11:23:55.579Z,18304
2018-03-29T11:24:55.592Z,19936
2018-03-29T11:25:55.060Z,19744
2018-03-29T11:26:55.574Z,18336
2018-03-29T11:27:55.553Z,18720
2018-03-29T11:28:55.568Z,18464
2018-03-29T11:29:55.339Z,20000
2018-03-29T11:30:55.085Z,20096
2018-03-29T11:31:55.537Z,19200
2018-03-29T11:32:55.279Z,18848
2018-03-29T11:33:55.012Z,18976
2018-03-29T11:34:55.015Z,19392
2018-03-29T11:35:55.287Z,20128
2018-03-29T11:36:55.569Z,20736
2018-03-29T11:37:55.244Z,21120
2018-03-29T11:38:55.552Z,20448
2018-03-29T11:39:55.484Z,20352
2018-03-29T11:40:55.235Z,20800
2018-03-29T11:41:55.467Z,20960
2018-03-29T11:42:55.463Z,19776
2018-03-29T11:43:54.971Z,17920
2018-03-29T11:44:55.210Z,17280
2018-03-29T11:45:55.477Z,18240
2018-03-29T11:46:55.456Z,20000
2018-03-29T11:47:55.446Z,19968
2018-03-29T11:48:55.448Z,20288
2018-03-29T11:49:55.436Z,20480
2018-03-29T11:50:55.546Z,21216
2018-03-29T11:51:55.494Z,21184
2018-03-29T11:52:55.479Z,20736
2018-03-29T11:53:55.409Z,21504
2018-03-29T11:54:54.895Z,21504
2018-03-29T11:55:55.405Z,21280
2018-03-29T11:56:55.386Z,19840
2018-03-29T11:57:55.392Z,18464
2018-03-29T11:58:55.386Z,19712
2018-03-29T11:59:54.877Z,19072
2018-03-29T12:00:55.396Z,17088
2018-03-29T12:01:55.777Z,14620
2018-03-29T12:02:55.786Z,15304
2018-03-29T12:03:55.109Z,17984
2018-03-29T12:04:55.396Z,18368
2018-03-29T12:05:55.370Z,17344
2018-03-29T12:06:55.351Z,14852
2018-03-29T12:07:55.367Z,13624
2018-03-29T12:08:55.111Z,11820
2018-03-29T12:09:55.363Z,11492
2018-03-29T12:10:55.100Z,14664
2018-03-29T12:11:55.160Z,17632
2018-03-29T12:12:55.342Z,19552
2018-03-29T12:13:55.327Z,17792
2018-03-29T12:14:55.320Z,12932
2018-03-29T12:15:55.047Z,8888
2018-03-29T12:16:55.331Z,8924
2018-03-29T12:17:55.313Z,11544
2018-03-29T12:18:55.285Z,13720
2018-03-29T12:19:55.066Z,16640
2018-03-29T12:20:55.352Z,18880
2018-03-29T12:21:55.314Z,19520
2018-03-29T12:22:55.060Z,19584
2018-03-29T12:23:55.024Z,19648
2018-03-29T12:24:55.294Z,19424
2018-03-29T12:25:55.029Z,18688
2018-03-29T12:26:55.088Z,17728
2018-03-29T12:27:55.259Z,18848
2018-03-29T12:28:55.277Z,18080
2018-03-29T12:29:55.365Z,15324
2018-03-29T12:30:55.281Z,13808
2018-03-29T12:31:55.286Z,13672
2018-03-29T12:32:54.777Z,13996
2018-03-29T12:33:55.300Z,14640
2018-03-29T12:34:55.230Z,14832
2018-03-29T12:35:55.219Z,15008
2018-03-29T12:36:55.269Z,15196
2018-03-29T12:37:55.462Z,15460
2018-03-29T12:38:55.193Z,15484
2018-03-29T12:39:55.197Z,15836
2018-03-29T12:40:55.202Z,16096
2018-03-29T12:41:55.189Z,15376
2018-03-29T12:42:55.191Z,14236
2018-03-29T12:43:54.971Z,12840
2018-03-29T12:44:54.970Z,12272
2018-03-29T12:45:55.167Z,12428
2018-03-29T12:46:55.121Z,12364
2018-03-29T12:47:55.151Z,12136
2018-03-29T12:48:54.902Z,11748
2018-03-29T12:49:55.138Z,11276
2018-03-29T12:50:55.160Z,11856
2018-03-29T12:51:55.149Z,13288
2018-03-29T12:52:54.619Z,14760
2018-03-29T12:53:54.925Z,16096
2018-03-29T12:54:54.854Z,16928
2018-03-29T12:55:55.225Z,17312
2018-03-29T12:56:54.843Z,16544
2018-03-29T12:57:54.841Z,16288
2018-03-29T12:58:54.859Z,16352
2018-03-29T12:59:54.834Z,16128
2018-03-29T13:00:55.085Z,15564
2018-03-29T13:01:55.087Z,14832
2018-03-29T13:02:55.061Z,14424
2018-03-29T13:03:55.067Z,13988
2018-03-29T13:04:55.074Z,13616
2018-03-29T13:05:54.807Z,13268
2018-03-29T13:06:55.043Z,13140
2018-03-29T13:07:55.046Z,12960
2018-03-29T13:08:55.393Z,12644
2018-03-29T13:09:55.033Z,12736
2018-03-29T13:10:55.038Z,13908
2018-03-29T13:11:55.046Z,14340
2018-03-29T13:12:55.017Z,14968
2018-03-29T13:13:55.023Z,15728
2018-03-29T13:14:55.018Z,14972
2018-03-29T13:15:55.228Z,14812
2018-03-29T13:16:54.742Z,14280
2018-03-29T13:17:54.739Z,12520
2018-03-29T13:18:55.001Z,11556
2018-03-29T13:19:54.739Z,10412
2018-03-29T13:20:55.031Z,8672
2018-03-29T13:21:54.733Z,9112
2018-03-29T13:22:54.971Z,9988
2018-03-29T13:23:54.990Z,9400
2018-03-29T13:24:54.945Z,8036
2018-03-29T13:25:55.363Z,7344
2018-03-29T13:26:54.717Z,5936
2018-03-29T13:27:54.709Z,4524
2018-03-29T13:28:54.683Z,3636
2018-03-29T13:29:54.918Z,3360
2018-03-29T13:30:54.834Z,3120
2018-03-29T13:31:54.910Z,3072
2018-03-29T13:32:54.934Z,2796
2018-03-29T13:33:54.906Z,2484
2018-03-29T13:34:54.892Z,2488
2018-03-29T13:35:54.644Z,2904
2018-03-29T13:36:54.890Z,3164
2018-03-29T13:37:54.879Z,2988
2018-03-29T13:38:54.616Z,2568
2018-03-29T13:39:54.878Z,2388
2018-03-29T13:40:54.868Z,2588